createdAt,value
2023-01-29T00:00:22.103Z,70.05
2023-01-29T00:02:48.609Z,69.84
2023-01-29T00:05:27.024Z,69.70
2023-01-29T00:07:54.600Z,69.91
2023-01-29T00:10:21.112Z,69.83
2023-01-29T00:12:47.569Z,69.73
2023-01-29T00:15:14.008Z,69.79
2023-01-29T00:17:40.446Z,69.89
2023-01-29T00:20:07.153Z,69.40
2023-01-29T00:22:33.541Z,69.79
2023-01-29T00:25:00.267Z,69.69
2023-01-29T00:27:26.680Z,69.76
2023-01-29T00:30:13.407Z,69.76
2023-01-29T00:32:40.596Z,69.44
2023-01-29T00:35:08.468Z,69.63
2023-01-29T00:37:35.498Z,69.63
2023-01-29T00:40:02.010Z,69.66
2023-01-29T00:42:47.114Z,69.80
2023-01-29T00:45:13.680Z,69.94
2023-01-29T00:47:40.066Z,69.97
2023-01-29T00:50:09.768Z,69.50
2023-01-29T00:52:36.732Z,69.52
2023-01-29T00:55:04.804Z,69.84
2023-01-29T00:57:32.754Z,69.72
2023-01-29T00:59:59.827Z,69.92
2023-01-29T01:02:44.803Z,69.49
2023-01-29T01:05:19.145Z,70.19
2023-01-29T01:07:53.854Z,69.99
2023-01-29T01:10:29.937Z,69.50
2023-01-29T01:13:02.165Z,69.78
2023-01-29T01:15:31.261Z,70.00
2023-01-29T01:18:00.510Z,69.54
2023-01-29T01:20:29.347Z,69.62
2023-01-29T01:22:56.664Z,69.64
2023-01-29T01:25:24.629Z,69.70
2023-01-29T01:27:55.699Z,69.49
2023-01-29T01:30:23.659Z,69.64
2023-01-29T01:32:50.398Z,70.17
2023-01-29T01:35:17.001Z,69.56
2023-01-29T01:37:43.521Z,69.83
2023-01-29T01:40:36.346Z,69.80
2023-01-29T01:43:02.751Z,69.74
2023-01-29T01:45:36.335Z,70.16
2023-01-29T01:48:15.208Z,70.18
2023-01-29T01:50:47.529Z,69.80
2023-01-29T01:53:19.681Z,69.81
2023-01-29T01:55:52.450Z,69.73
2023-01-29T01:58:30.042Z,69.62
2023-01-29T02:00:57.020Z,69.60
2023-01-29T02:03:44.757Z,70.24
2023-01-29T02:06:29.953Z,69.86
2023-01-29T02:09:23.520Z,69.70
2023-01-29T02:11:51.595Z,69.84
2023-01-29T02:14:18.571Z,70.00
2023-01-29T02:16:45.496Z,69.85
2023-01-29T02:19:26.433Z,69.41
2023-01-29T02:22:12.027Z,69.65
2023-01-29T02:24:59.687Z,70.44
2023-01-29T02:27:48.736Z,70.10
2023-01-29T02:30:54.386Z,70.45
2023-01-29T02:33:33.744Z,70.00
2023-01-29T02:36:29.752Z,70.27
2023-01-29T02:39:05.182Z,69.92
2023-01-29T02:41:51.893Z,70.39
2023-01-29T02:44:36.991Z,70.12
2023-01-29T02:47:15.615Z,70.43
2023-01-29T02:50:03.209Z,69.77
2023-01-29T02:52:56.793Z,70.38
2023-01-29T02:55:32.089Z,69.89
2023-01-29T02:58:11.268Z,70.28
2023-01-29T03:00:44.303Z,69.99
2023-01-29T03:03:17.561Z,69.93
2023-01-29T03:05:53.358Z,69.90
2023-01-29T03:08:36.842Z,69.86
2023-01-29T03:11:06.480Z,70.36
2023-01-29T03:13:43.472Z,70.21
2023-01-29T03:16:22.538Z,69.87
2023-01-29T03:18:57.534Z,70.41
2023-01-29T03:22:00.967Z,70.33
2023-01-29T03:24:58.082Z,69.97
2023-01-29T03:27:50.282Z,70.36
2023-01-29T03:30:38.395Z,69.82
2023-01-29T03:33:28.341Z,69.80
2023-01-29T03:36:13.257Z,70.03
2023-01-29T03:38:40.703Z,69.98
2023-01-29T03:41:14.532Z,70.12
2023-01-29T03:43:55.007Z,70.52
2023-01-29T03:46:54.654Z,70.38
2023-01-29T03:49:34.350Z,70.37
2023-01-29T03:52:18.168Z,70.42
2023-01-29T03:55:01.086Z,70.63
2023-01-29T03:57:38.456Z,70.49
2023-01-29T04:00:07.761Z,71.12
2023-01-29T04:02:51.932Z,70.45
2023-01-29T04:05:27.576Z,70.49
2023-01-29T04:08:12.818Z,70.47
2023-01-29T04:10:44.053Z,71.12
2023-01-29T04:13:14.903Z,70.87
2023-01-29T04:16:06.497Z,70.76
2023-01-29T04:18:56.082Z,70.95
2023-01-29T04:21:31.870Z,70.98
2023-01-29T04:23:59.146Z,70.86
2023-01-29T04:26:47.653Z,71.07
2023-01-29T04:29:40.093Z,71.09
2023-01-29T04:32:34.245Z,70.81
2023-01-29T04:35:25.289Z,71.23
2023-01-29T04:38:11.406Z,70.90
2023-01-29T04:40:53.456Z,71.32
2023-01-29T04:43:29.367Z,70.97
2023-01-29T04:46:19.867Z,71.25
2023-01-29T04:49:05.018Z,70.81
2023-01-29T04:51:50.141Z,70.97
2023-01-29T04:54:28.856Z,70.65
2023-01-29T04:57:06.230Z,70.97
2023-01-29T04:59:40.152Z,70.90
2023-01-29T05:02:09.939Z,71.05
2023-01-29T05:04:40.923Z,71.03
2023-01-29T05:07:13.097Z,70.51
2023-01-29T05:09:42.941Z,70.41
2023-01-29T05:12:12.525Z,70.78
2023-01-29T05:14:42.112Z,70.83
2023-01-29T05:17:14.153Z,70.75
2023-01-29T05:19:41.034Z,70.70
2023-01-29T05:22:11.126Z,70.16
2023-01-29T05:24:37.981Z,70.62
2023-01-29T05:27:23.242Z,70.58
2023-01-29T05:29:49.718Z,70.50
2023-01-29T05:32:16.502Z,70.73
2023-01-29T05:34:42.931Z,70.81
2023-01-29T05:37:10.457Z,70.93
2023-01-29T05:39:36.851Z,70.96
2023-01-29T05:42:03.401Z,70.39
2023-01-29T05:44:29.821Z,70.45
2023-01-29T05:46:56.476Z,70.59
2023-01-29T05:49:22.905Z,71.23
2023-01-29T05:51:49.776Z,70.62
2023-01-29T05:54:16.238Z,70.81
2023-01-29T05:56:42.708Z,70.56
2023-01-29T05:59:09.115Z,71.06
2023-01-29T06:01:35.885Z,70.91
2023-01-29T06:04:02.381Z,70.64
2023-01-29T06:06:28.818Z,70.81
2023-01-29T06:08:56.049Z,71.14
2023-01-29T06:11:22.696Z,70.86
2023-01-29T06:13:49.176Z,71.65
2023-01-29T06:16:16.034Z,71.53
2023-01-29T06:18:42.975Z,71.03
2023-01-29T06:21:12.200Z,71.09
2023-01-29T06:23:38.980Z,71.05
2023-01-29T06:26:15.555Z,71.15
2023-01-29T06:28:42.469Z,71.34
2023-01-29T06:31:24.951Z,71.33
2023-01-29T06:33:55.363Z,71.47
2023-01-29T06:36:21.776Z,71.45
2023-01-29T06:38:48.339Z,70.94
2023-01-29T06:41:18.451Z,70.86
2023-01-29T06:43:45.865Z,71.11
2023-01-29T06:46:12.457Z,71.26
2023-01-29T06:48:38.925Z,71.16
2023-01-29T06:51:10.210Z,71.44
2023-01-29T06:53:38.407Z,71.20
2023-01-29T06:56:05.791Z,70.89
2023-01-29T06:58:32.216Z,71.09
2023-01-29T07:01:11.721Z,71.19
2023-01-29T07:03:42.632Z,71.37
2023-01-29T07:06:09.667Z,71.17
2023-01-29T07:08:37.704Z,71.40
2023-01-29T07:11:04.924Z,71.07
2023-01-29T07:13:31.517Z,71.54
2023-01-29T07:16:01.749Z,71.43
2023-01-29T07:18:29.244Z,71.50
2023-01-29T07:20:56.242Z,71.26
2023-01-29T07:23:22.852Z,71.50
2023-01-29T07:25:52.172Z,71.42
2023-01-29T07:28:20.525Z,71.41
2023-01-29T07:30:47.216Z,71.19
2023-01-29T07:33:13.653Z,71.24
2023-01-29T07:35:42.621Z,71.40
2023-01-29T07:38:10.865Z,71.20
2023-01-29T07:40:37.562Z,71.24
2023-01-29T07:43:06.637Z,71.37
2023-01-29T07:45:35.383Z,71.44
2023-01-29T07:48:01.947Z,70.67
2023-01-29T07:50:28.481Z,71.81
2023-01-29T07:52:55.078Z,71.38
2023-01-29T07:55:22.020Z,71.50
2023-01-29T07:57:48.505Z,71.11
2023-01-29T08:00:15.844Z,71.68
2023-01-29T08:02:42.539Z,72.07
2023-01-29T08:05:09.197Z,71.74
2023-01-29T08:07:35.641Z,71.77
2023-01-29T08:10:02.068Z,71.66
2023-01-29T08:12:28.530Z,71.41
2023-01-29T08:14:54.926Z,71.79
2023-01-29T08:17:21.343Z,71.62
2023-01-29T08:19:47.762Z,71.79
2023-01-29T08:22:16.438Z,71.35
2023-01-29T08:24:53.861Z,71.34
2023-01-29T08:27:26.622Z,71.36
2023-01-29T08:29:53.052Z,71.28
2023-01-29T08:32:19.451Z,71.57
2023-01-29T08:34:45.847Z,71.33
2023-01-29T08:37:12.220Z,71.54
2023-01-29T08:39:38.725Z,71.29
2023-01-29T08:42:05.133Z,71.65
2023-01-29T08:44:31.575Z,71.50
2023-01-29T08:46:58.021Z,71.58
2023-01-29T08:49:24.626Z,72.17
2023-01-29T08:51:53.819Z,72.18
2023-01-29T08:54:20.199Z,71.68
2023-01-29T08:56:46.597Z,72.04
2023-01-29T08:59:13.200Z,71.31
2023-01-29T09:01:39.676Z,71.67
2023-01-29T09:04:06.118Z,71.39
2023-01-29T09:06:32.478Z,71.46
2023-01-29T09:08:58.842Z,71.46
2023-01-29T09:11:25.317Z,71.84
2023-01-29T09:13:52.002Z,71.93
2023-01-29T09:16:18.527Z,71.76
2023-01-29T09:18:44.960Z,71.41
2023-01-29T09:21:11.411Z,71.62
2023-01-29T09:23:37.965Z,71.40
2023-01-29T09:26:04.614Z,71.41
2023-01-29T09:28:31.012Z,71.80
2023-01-29T09:31:01.544Z,72.05
2023-01-29T09:33:28.145Z,72.04
2023-01-29T09:35:54.823Z,72.98
2023-01-29T09:38:21.236Z,72.33
2023-01-29T09:40:58.587Z,72.15
2023-01-29T09:43:44.032Z,72.35
2023-01-29T09:46:20.199Z,71.90
2023-01-29T09:48:50.358Z,72.31
2023-01-29T09:51:50.339Z,72.14
2023-01-29T09:54:31.083Z,72.48
2023-01-29T09:56:57.663Z,72.33
2023-01-29T09:59:27.718Z,72.36
2023-01-29T10:02:03.857Z,72.15
2023-01-29T10:04:51.999Z,72.58
2023-01-29T10:07:50.052Z,72.33
2023-01-29T10:10:43.353Z,72.76
2023-01-29T10:13:29.694Z,72.43
2023-01-29T10:16:18.567Z,72.85
2023-01-29T10:18:44.931Z,72.79
2023-01-29T10:21:37.574Z,72.64
2023-01-29T10:24:12.265Z,73.36
2023-01-29T10:26:40.609Z,72.93
2023-01-29T10:29:08.550Z,72.73
2023-01-29T10:31:39.783Z,72.51
2023-01-29T10:34:12.155Z,72.65
2023-01-29T10:36:45.855Z,73.19
2023-01-29T10:39:18.573Z,73.21
2023-01-29T10:42:11.451Z,73.19
2023-01-29T10:44:50.564Z,74.12
2023-01-29T10:47:32.378Z,73.21
2023-01-29T10:50:25.448Z,72.64
2023-01-29T10:53:08.011Z,72.49
2023-01-29T10:55:52.413Z,72.44
2023-01-29T10:58:41.758Z,72.62
2023-01-29T11:01:09.923Z,72.88
2023-01-29T11:03:36.782Z,73.18
2023-01-29T11:06:24.163Z,77.29
2023-01-29T11:09:05.637Z,77.26
2023-01-29T11:11:41.511Z,73.71
2023-01-29T11:14:14.805Z,72.83
2023-01-29T11:16:44.177Z,72.75
2023-01-29T11:19:11.582Z,72.92
2023-01-29T11:21:58.126Z,72.78
2023-01-29T11:24:24.734Z,73.04
2023-01-29T11:26:54.178Z,72.99
2023-01-29T11:29:39.710Z,73.41
2023-01-29T11:32:11.687Z,73.95
2023-01-29T11:35:03.448Z,73.17
2023-01-29T11:37:32.522Z,73.45
2023-01-29T11:39:59.237Z,73.52
2023-01-29T11:42:31.415Z,73.62
2023-01-29T11:44:57.814Z,73.44
2023-01-29T11:47:29.972Z,73.30
2023-01-29T11:49:58.976Z,73.43
2023-01-29T11:52:35.297Z,73.02
2023-01-29T11:55:40.984Z,74.19
2023-01-29T11:58:32.542Z,73.32
2023-01-29T12:01:00.841Z,73.51
2023-01-29T12:03:43.769Z,73.34
2023-01-29T12:06:28.269Z,73.32
2023-01-29T12:08:57.980Z,74.17
2023-01-29T12:11:27.218Z,74.02
2023-01-29T12:13:55.684Z,74.21
2023-01-29T12:16:51.391Z,74.53
2023-01-29T12:19:39.957Z,74.34
2023-01-29T12:22:27.245Z,74.51
2023-01-29T12:25:16.264Z,74.43
2023-01-29T12:28:00.227Z,74.68
2023-01-29T12:30:38.884Z,75.65
2023-01-29T12:33:14.873Z,75.94
2023-01-29T12:35:50.247Z,76.03
2023-01-29T12:38:23.999Z,76.49
2023-01-29T12:40:55.344Z,77.27
2023-01-29T12:43:38.669Z,77.71
2023-01-29T12:46:10.752Z,77.70
2023-01-29T12:48:42.094Z,78.13
2023-01-29T12:51:14.205Z,77.93
2023-01-29T12:53:47.931Z,79.21
2023-01-29T12:56:20.750Z,79.47
2023-01-29T12:58:54.224Z,79.65
2023-01-29T13:01:31.227Z,80.65
2023-01-29T13:04:06.813Z,81.51
2023-01-29T13:06:41.521Z,80.99
2023-01-29T13:09:30.173Z,81.21
2023-01-29T13:12:01.702Z,82.01
2023-01-29T13:14:58.911Z,81.75
2023-01-29T13:17:32.965Z,81.48
2023-01-29T13:20:09.048Z,82.63
2023-01-29T13:22:40.453Z,82.50
2023-01-29T13:25:12.216Z,82.44
2023-01-29T13:27:39.048Z,82.70
2023-01-29T13:30:05.995Z,89.47
2023-01-29T13:32:35.550Z,84.74
2023-01-29T13:35:14.027Z,82.58
2023-01-29T13:37:49.021Z,82.26
2023-01-29T13:40:26.678Z,82.28
2023-01-29T13:42:57.259Z,82.11
2023-01-29T13:45:43.257Z,81.63
2023-01-29T13:48:19.417Z,81.61
2023-01-29T13:50:47.134Z,81.28
2023-01-29T13:53:26.967Z,80.05
2023-01-29T13:55:53.551Z,80.51
2023-01-29T13:58:32.119Z,80.33
2023-01-29T14:01:01.219Z,80.08
2023-01-29T14:03:29.984Z,80.34
2023-01-29T14:06:04.979Z,79.82
2023-01-29T14:08:34.105Z,79.27
2023-01-29T14:11:15.989Z,79.60
2023-01-29T14:13:44.570Z,79.47
2023-01-29T14:16:14.548Z,78.59
2023-01-29T14:18:50.565Z,78.70
2023-01-29T14:21:16.853Z,78.93
2023-01-29T14:23:55.876Z,78.27
2023-01-29T14:26:45.241Z,77.92
2023-01-29T14:29:34.308Z,78.00
2023-01-29T14:32:17.883Z,78.07
2023-01-29T14:34:47.741Z,78.17
2023-01-29T14:37:16.874Z,78.05
2023-01-29T14:39:46.974Z,78.00
2023-01-29T14:42:23.432Z,77.10
2023-01-29T14:44:55.656Z,77.47
2023-01-29T14:47:21.999Z,77.08
2023-01-29T14:49:59.490Z,77.61
2023-01-29T14:52:47.406Z,77.64
2023-01-29T14:55:32.049Z,77.41
2023-01-29T14:57:59.187Z,77.59
2023-01-29T15:00:33.517Z,77.13
2023-01-29T15:03:02.603Z,77.61
2023-01-29T15:05:35.832Z,77.15
2023-01-29T15:08:23.630Z,77.08
2023-01-29T15:11:14.324Z,76.94
2023-01-29T15:13:57.246Z,77.59
2023-01-29T15:16:42.034Z,77.15
2023-01-29T15:19:18.019Z,77.35
2023-01-29T15:22:04.704Z,77.48
2023-01-29T15:24:31.214Z,77.53
2023-01-29T15:26:57.967Z,77.32
2023-01-29T15:29:27.435Z,77.37
2023-01-29T15:31:55.507Z,77.60
2023-01-29T15:34:22.368Z,77.70
2023-01-29T15:36:50.171Z,77.89
2023-01-29T15:39:16.550Z,77.34
2023-01-29T15:41:44.444Z,77.66
2023-01-29T15:44:21.985Z,77.50
2023-01-29T15:46:58.666Z,77.71
2023-01-29T15:49:37.586Z,78.11
2023-01-29T15:52:07.860Z,78.04
2023-01-29T15:54:35.610Z,78.48
2023-01-29T15:57:03.475Z,78.70
2023-01-29T15:59:35.241Z,79.12
2023-01-29T16:02:26.353Z,79.54
2023-01-29T16:04:52.852Z,79.66
2023-01-29T16:07:22.506Z,79.71
2023-01-29T16:09:50.580Z,79.57
2023-01-29T16:12:17.200Z,79.49
2023-01-29T16:14:44.297Z,79.43
2023-01-29T16:17:24.879Z,80.02
2023-01-29T16:19:59.836Z,80.38
2023-01-29T16:22:34.172Z,79.86
2023-01-29T16:25:14.866Z,79.55
2023-01-29T16:27:44.107Z,79.83
2023-01-29T16:30:16.121Z,79.92
2023-01-29T16:32:42.858Z,79.78
2023-01-29T16:35:17.035Z,81.70
2023-01-29T16:37:48.872Z,80.21
2023-01-29T16:40:32.919Z,79.37
2023-01-29T16:43:17.485Z,79.09
2023-01-29T16:46:03.105Z,79.66
2023-01-29T16:48:34.979Z,80.09
2023-01-29T16:51:12.325Z,79.98
2023-01-29T16:53:38.727Z,79.93
2023-01-29T16:56:08.189Z,79.99
2023-01-29T16:58:35.367Z,80.00
2023-01-29T17:01:10.955Z,79.70
2023-01-29T17:03:39.758Z,79.70
2023-01-29T17:06:11.883Z,79.93
2023-01-29T17:08:41.212Z,79.49
2023-01-29T17:11:08.151Z,79.43
2023-01-29T17:13:42.673Z,79.91
2023-01-29T17:16:23.778Z,80.02
2023-01-29T17:18:50.335Z,79.72
2023-01-29T17:21:16.851Z,79.85
2023-01-29T17:23:43.416Z,80.01
2023-01-29T17:26:12.942Z,80.45
2023-01-29T17:28:40.256Z,80.14
2023-01-29T17:31:07.803Z,79.91
2023-01-29T17:33:43.060Z,80.29
2023-01-29T17:36:15.324Z,80.74
2023-01-29T17:38:41.897Z,80.25
2023-01-29T17:41:29.956Z,80.31
2023-01-29T17:43:56.496Z,80.17
2023-01-29T17:46:22.957Z,79.96
2023-01-29T17:48:49.532Z,80.24
2023-01-29T17:51:17.575Z,80.25
2023-01-29T17:53:46.456Z,80.02
2023-01-29T17:56:18.793Z,79.75
2023-01-29T17:58:45.413Z,80.02
2023-01-29T18:01:11.871Z,80.23
2023-01-29T18:03:38.403Z,79.84
2023-01-29T18:06:08.369Z,80.09
2023-01-29T18:08:37.929Z,82.72
2023-01-29T18:11:04.534Z,80.77
2023-01-29T18:13:31.254Z,79.97
2023-01-29T18:15:57.990Z,79.90
2023-01-29T18:18:24.832Z,79.90
2023-01-29T18:20:51.549Z,80.09
2023-01-29T18:23:18.198Z,80.17
2023-01-29T18:25:44.850Z,80.55
2023-01-29T18:28:16.979Z,80.23
2023-01-29T18:30:46.878Z,80.53
2023-01-29T18:33:14.198Z,80.11
2023-01-29T18:35:40.679Z,80.39
2023-01-29T18:38:07.354Z,80.71
2023-01-29T18:40:33.850Z,80.61
2023-01-29T18:43:00.821Z,80.44
2023-01-29T18:45:28.708Z,79.92
2023-01-29T18:47:55.705Z,79.94
2023-01-29T18:50:26.343Z,80.52
2023-01-29T18:52:55.825Z,80.05
2023-01-29T18:55:23.043Z,79.97
2023-01-29T18:58:25.134Z,79.98
2023-01-29T19:00:40.459Z,80.68
2023-01-29T19:03:06.936Z,80.18
2023-01-29T19:05:33.788Z,80.56
2023-01-29T19:08:00.214Z,80.06
2023-01-29T19:10:26.651Z,80.46
2023-01-29T19:12:53.101Z,80.00
2023-01-29T19:15:21.916Z,80.26
2023-01-29T19:17:49.541Z,80.31
2023-01-29T19:20:16.254Z,80.69
2023-01-29T19:22:42.623Z,80.94
2023-01-29T19:25:09.773Z,80.31
2023-01-29T19:27:36.283Z,80.72
2023-01-29T19:30:05.495Z,80.39
2023-01-29T19:32:32.508Z,80.22
2023-01-29T19:34:58.902Z,80.29
2023-01-29T19:37:25.829Z,80.28
2023-01-29T19:39:53.770Z,80.55
2023-01-29T19:42:20.890Z,80.31
2023-01-29T19:44:47.837Z,80.04
2023-01-29T19:47:14.451Z,80.08
2023-01-29T19:49:40.849Z,80.57
2023-01-29T19:52:14.712Z,80.78
2023-01-29T19:54:46.161Z,80.15
2023-01-29T19:57:13.003Z,81.01
2023-01-29T19:59:39.401Z,80.86
2023-01-29T20:02:06.258Z,81.54
2023-01-29T20:04:32.849Z,81.60
2023-01-29T20:06:59.477Z,80.77
2023-01-29T20:09:25.929Z,80.82
2023-01-29T20:11:52.390Z,81.11
2023-01-29T20:14:18.870Z,81.20
2023-01-29T20:16:45.269Z,81.25
2023-01-29T20:19:13.987Z,81.52
2023-01-29T20:21:42.181Z,81.88
2023-01-29T20:24:12.811Z,82.21
2023-01-29T20:26:39.517Z,82.13
2023-01-29T20:29:06.544Z,82.53
2023-01-29T20:31:33.488Z,82.57
2023-01-29T20:33:59.994Z,82.72
2023-01-29T20:36:26.379Z,82.52
2023-01-29T20:38:52.908Z,81.87
2023-01-29T20:41:19.887Z,82.20
2023-01-29T20:43:47.112Z,82.04
2023-01-29T20:46:14.069Z,82.16
2023-01-29T20:48:41.908Z,82.31
2023-01-29T20:51:15.525Z,82.41
2023-01-29T20:53:43.195Z,81.58
2023-01-29T20:56:10.179Z,82.08
2023-01-29T20:58:37.909Z,81.64
2023-01-29T21:01:16.016Z,81.87
2023-01-29T21:03:42.609Z,82.44
2023-01-29T21:06:10.348Z,82.11
2023-01-29T21:08:37.976Z,82.18
2023-01-29T21:11:06.033Z,82.03
2023-01-29T21:13:32.407Z,81.71
2023-01-29T21:15:58.969Z,82.02
2023-01-29T21:18:26.253Z,82.11
2023-01-29T21:20:53.590Z,81.84
2023-01-29T21:23:20.602Z,82.08
2023-01-29T21:25:48.036Z,82.62
2023-01-29T21:28:15.250Z,82.47
2023-01-29T21:30:41.804Z,82.76
2023-01-29T21:33:08.320Z,82.47
2023-01-29T21:35:36.884Z,82.65
2023-01-29T21:38:04.078Z,82.79
2023-01-29T21:40:30.607Z,82.64
2023-01-29T21:43:12.468Z,82.94
2023-01-29T21:45:40.094Z,82.86
2023-01-29T21:48:07.343Z,82.67
2023-01-29T21:50:33.835Z,82.74
2023-01-29T21:53:00.977Z,83.03
2023-01-29T21:55:27.706Z,83.04
2023-01-29T21:57:54.121Z,82.66
2023-01-29T22:00:20.721Z,83.17
2023-01-29T22:02:47.311Z,82.84
2023-01-29T22:05:19.197Z,82.49
2023-01-29T22:07:46.143Z,82.68
2023-01-29T22:10:12.946Z,82.88
2023-01-29T22:12:39.844Z,83.29
2023-01-29T22:15:07.705Z,83.05
2023-01-29T22:17:35.167Z,83.36
2023-01-29T22:20:01.748Z,83.56
2023-01-29T22:22:28.251Z,83.31
2023-01-29T22:24:56.317Z,83.17
2023-01-29T22:27:22.708Z,83.90
2023-01-29T22:29:49.087Z,83.11
2023-01-29T22:32:16.128Z,83.76
2023-01-29T22:34:42.612Z,84.05
2023-01-29T22:37:09.067Z,84.06
2023-01-29T22:39:35.473Z,84.13
2023-01-29T22:42:02.074Z,84.22
2023-01-29T22:44:28.428Z,83.41
2023-01-29T22:46:54.937Z,84.12
2023-01-29T22:49:21.386Z,84.52
2023-01-29T22:51:48.044Z,83.93
2023-01-29T22:54:15.485Z,84.58
2023-01-29T22:56:41.957Z,84.35
2023-01-29T22:59:09.841Z,85.32
2023-01-29T23:01:36.352Z,84.85
2023-01-29T23:04:02.765Z,85.44
2023-01-29T23:06:29.207Z,84.75
2023-01-29T23:08:55.634Z,84.78
2023-01-29T23:11:23.400Z,84.51
2023-01-29T23:13:54.474Z,84.63
2023-01-29T23:16:26.991Z,84.60
2023-01-29T23:18:55.632Z,84.98
2023-01-29T23:21:25.028Z,84.62
2023-01-29T23:24:01.303Z,84.71
2023-01-29T23:26:47.443Z,84.70
2023-01-29T23:29:14.581Z,85.01
2023-01-29T23:31:41.097Z,85.56
2023-01-29T23:34:07.581Z,84.10
2023-01-29T23:36:34.042Z,84.10
2023-01-29T23:39:00.456Z,84.53
2023-01-29T23:41:26.857Z,84.77
2023-01-29T23:43:53.235Z,85.34
2023-01-29T23:46:19.665Z,85.46
2023-01-29T23:48:46.061Z,85.38
2023-01-29T23:51:12.533Z,85.16
2023-01-29T23:53:38.993Z,84.95
2023-01-29T23:56:06.037Z,84.82
2023-01-29T23:58:33.359Z,85.49
